createdAt,value
2022-10-10T00:03:37.136Z,1.80
2022-10-10T00:08:44.386Z,2.00
2022-10-10T00:13:50.519Z,2.17
2022-10-10T00:18:56.037Z,1.93
2022-10-10T00:24:01.645Z,2.30
2022-10-10T00:29:08.341Z,1.97
2022-10-10T00:34:13.791Z,1.90
2022-10-10T00:39:19.307Z,1.80
2022-10-10T00:44:25.008Z,2.40
2022-10-10T00:49:32.188Z,2.23
2022-10-10T00:54:39.213Z,2.20
2022-10-10T00:59:46.698Z,2.27
2022-10-10T01:04:52.145Z,2.00
2022-10-10T01:10:00.928Z,2.37
2022-10-10T01:15:15.290Z,2.33
2022-10-10T01:20:43.358Z,2.40
2022-10-10T01:25:54.677Z,2.43
2022-10-10T01:31:01.301Z,2.23
2022-10-10T01:36:09.795Z,2.60
2022-10-10T01:41:21.176Z,2.80
2022-10-10T01:46:27.192Z,2.63
2022-10-10T01:51:52.501Z,2.50
2022-10-10T01:57:16.244Z,2.23
2022-10-10T02:02:39.741Z,2.40
2022-10-10T02:07:51.532Z,2.37
2022-10-10T02:12:59.745Z,2.70
2022-10-10T02:18:08.364Z,2.13
2022-10-10T02:23:18.992Z,2.33
2022-10-10T02:28:36.470Z,2.83
2022-10-10T02:33:47.866Z,2.70
2022-10-10T02:38:55.586Z,2.17
2022-10-10T02:44:00.958Z,2.50
2022-10-10T02:49:11.782Z,2.57
2022-10-10T02:54:17.286Z,2.57
2022-10-10T02:59:22.889Z,2.60
2022-10-10T03:04:29.763Z,2.70
2022-10-10T03:09:35.365Z,2.73
2022-10-10T03:14:40.743Z,2.47
2022-10-10T03:19:46.258Z,2.47
2022-10-10T03:24:53.161Z,2.97
2022-10-10T03:29:58.749Z,2.80
2022-10-10T03:35:04.360Z,2.70
2022-10-10T03:40:10.363Z,2.97
2022-10-10T03:45:15.882Z,3.00
2022-10-10T03:50:21.335Z,3.03
2022-10-10T03:55:26.762Z,3.27
2022-10-10T04:00:32.297Z,3.17
2022-10-10T04:05:40.207Z,3.67
2022-10-10T04:10:51.469Z,2.97
2022-10-10T04:15:57.620Z,2.97
2022-10-10T04:21:07.126Z,3.20
2022-10-10T04:26:12.641Z,3.67
2022-10-10T04:31:18.081Z,3.60
2022-10-10T04:36:23.598Z,3.80
2022-10-10T04:41:28.978Z,3.50
2022-10-10T04:46:34.497Z,3.40
2022-10-10T04:51:40.072Z,3.47
2022-10-10T04:56:46.215Z,3.37
2022-10-10T05:01:53.316Z,3.73
2022-10-10T05:06:58.897Z,3.70
2022-10-10T05:12:06.670Z,4.10
2022-10-10T05:17:12.109Z,3.43
2022-10-10T05:22:17.478Z,3.37
2022-10-10T05:27:22.914Z,3.93
2022-10-10T05:32:28.442Z,4.57
2022-10-10T05:37:34.663Z,4.20
2022-10-10T05:42:40.177Z,3.70
2022-10-10T05:47:45.767Z,3.83
2022-10-10T05:52:51.535Z,4.60
2022-10-10T05:57:57.654Z,4.10
2022-10-10T06:03:03.466Z,3.90
2022-10-10T06:08:12.179Z,4.03
2022-10-10T06:13:23.833Z,4.27
2022-10-10T06:18:25.729Z,4.50
2022-10-10T06:23:31.610Z,4.20
2022-10-10T06:28:37.278Z,3.80
2022-10-10T06:33:48.192Z,4.20
2022-10-10T06:38:53.630Z,3.57
2022-10-10T06:43:59.082Z,4.43
2022-10-10T06:49:06.175Z,4.30
2022-10-10T06:54:12.244Z,4.67
2022-10-10T06:59:17.887Z,3.83
2022-10-10T07:04:23.415Z,4.07
2022-10-10T07:09:29.702Z,3.37
2022-10-10T07:14:35.212Z,3.50
2022-10-10T07:19:41.060Z,3.13
2022-10-10T07:24:47.081Z,3.73
2022-10-10T07:29:52.597Z,3.07
2022-10-10T07:34:59.116Z,3.70
2022-10-10T07:40:04.830Z,4.97
2022-10-10T07:45:12.340Z,3.90
2022-10-10T07:50:17.846Z,3.90
2022-10-10T07:55:23.357Z,3.67
2022-10-10T08:00:29.272Z,3.77
2022-10-10T08:05:34.848Z,3.27
2022-10-10T08:10:43.352Z,3.57
2022-10-10T08:15:51.859Z,4.07
2022-10-10T08:21:02.487Z,3.17
2022-10-10T08:26:10.780Z,3.55
2022-10-10T08:31:19.506Z,3.37
2022-10-10T08:36:27.642Z,3.00
2022-10-10T08:41:42.058Z,3.00
2022-10-10T08:46:59.895Z,3.03
2022-10-10T08:52:11.423Z,2.77
2022-10-10T08:57:47.214Z,3.07
2022-10-10T09:02:59.351Z,3.10
2022-10-10T09:08:26.992Z,2.37
2022-10-10T09:13:43.595Z,2.37
2022-10-10T09:19:19.465Z,2.57
2022-10-10T09:24:27.954Z,2.97
2022-10-10T09:29:42.303Z,2.60
2022-10-10T09:34:50.491Z,2.47
2022-10-10T09:40:01.741Z,2.50
2022-10-10T09:45:22.236Z,2.10
2022-10-10T09:50:28.501Z,2.43
2022-10-10T09:55:39.261Z,2.00
2022-10-10T10:00:44.838Z,2.30
2022-10-10T10:05:56.066Z,2.47
2022-10-10T10:11:03.094Z,3.23
2022-10-10T10:16:14.554Z,2.97
2022-10-10T10:21:23.730Z,2.90
2022-10-10T10:26:44.062Z,2.43
2022-10-10T10:32:16.769Z,2.77
2022-10-10T10:37:28.078Z,2.70
2022-10-10T10:42:48.290Z,2.60
2022-10-10T10:48:24.120Z,3.40
2022-10-10T10:53:32.552Z,2.30
2022-10-10T11:04:16.073Z,2.83
2022-10-10T11:09:48.379Z,3.00
2022-10-10T11:14:50.814Z,2.60
2022-10-10T11:19:59.311Z,2.53
2022-10-10T11:25:07.733Z,2.57
2022-10-10T11:30:24.590Z,2.63
2022-10-10T11:35:48.188Z,2.80
2022-10-10T11:40:59.610Z,2.60
2022-10-10T11:46:08.423Z,2.33
2022-10-10T11:51:27.279Z,2.90
2022-10-10T11:56:35.709Z,2.43
2022-10-10T12:01:44.291Z,2.13
2022-10-10T12:06:55.246Z,2.40
2022-10-10T12:12:23.403Z,2.50
2022-10-10T12:17:31.594Z,2.90
2022-10-10T12:22:37.113Z,2.20
2022-10-10T12:27:49.333Z,2.30
2022-10-10T12:32:55.355Z,2.17
2022-10-10T12:38:12.675Z,2.57
2022-10-10T12:43:27.304Z,2.50
2022-10-10T12:48:33.393Z,2.10
2022-10-10T12:53:39.179Z,2.40
2022-10-10T12:58:46.832Z,2.03
2022-10-10T13:03:55.069Z,2.20
2022-10-10T13:09:03.954Z,2.60
2022-10-10T13:14:10.271Z,2.10
2022-10-10T13:19:26.474Z,2.40
2022-10-10T13:24:33.469Z,2.43
2022-10-10T13:29:41.722Z,2.40
2022-10-10T13:34:50.217Z,2.33
2022-10-10T13:39:57.084Z,2.47
2022-10-10T13:45:05.715Z,2.37
2022-10-10T13:50:44.769Z,2.43
2022-10-10T13:55:51.369Z,2.20
2022-10-10T14:01:04.759Z,2.63
2022-10-10T14:06:10.562Z,2.70
2022-10-10T14:11:19.122Z,2.63
2022-10-10T14:16:26.424Z,2.33
2022-10-10T14:21:31.879Z,2.20
2022-10-10T14:26:38.411Z,2.50
2022-10-10T14:31:44.642Z,3.00
2022-10-10T14:36:51.715Z,2.30
2022-10-10T14:41:57.161Z,2.17
2022-10-10T14:47:02.549Z,2.43
2022-10-10T14:52:09.762Z,2.70
2022-10-10T14:57:15.566Z,2.60
2022-10-10T15:02:22.851Z,2.63
2022-10-10T15:07:28.646Z,2.70
2022-10-10T15:12:35.556Z,2.97
2022-10-10T15:17:41.695Z,2.60
2022-10-10T15:22:47.416Z,2.80
2022-10-10T15:27:52.955Z,2.70
2022-10-10T15:32:58.570Z,2.93
2022-10-10T15:38:04.125Z,3.00
2022-10-10T15:43:09.866Z,2.73
2022-10-10T15:48:15.403Z,3.30
2022-10-10T15:53:21.258Z,3.20
2022-10-10T15:58:26.972Z,3.37
2022-10-10T16:03:34.116Z,3.00
2022-10-10T16:08:40.047Z,3.07
2022-10-10T16:13:51.080Z,2.93
2022-10-10T16:18:56.637Z,3.10
2022-10-10T16:24:02.104Z,2.77
2022-10-10T16:29:09.341Z,2.90
2022-10-10T16:34:16.152Z,2.80
2022-10-10T16:39:21.680Z,3.43
2022-10-10T16:44:27.776Z,2.70
2022-10-10T16:49:33.168Z,3.37
2022-10-10T16:54:38.894Z,2.80
2022-10-10T16:59:44.557Z,3.10
2022-10-10T17:04:50.083Z,3.17
2022-10-10T17:09:55.636Z,3.40
2022-10-10T17:15:01.681Z,3.73
2022-10-10T17:20:08.609Z,3.97
2022-10-10T17:25:14.247Z,4.10
2022-10-10T17:30:20.024Z,3.70
2022-10-10T17:35:25.540Z,3.53
2022-10-10T17:40:31.205Z,3.67
2022-10-10T17:45:37.708Z,4.50
2022-10-10T17:50:43.164Z,4.27
2022-10-10T17:55:48.938Z,3.83
2022-10-10T18:00:56.312Z,3.57
2022-10-10T18:06:09.782Z,3.30
2022-10-10T18:11:18.419Z,4.27
2022-10-10T18:16:24.533Z,4.10
2022-10-10T18:21:30.172Z,3.33
2022-10-10T18:26:36.553Z,3.27
2022-10-10T18:31:43.423Z,3.70
2022-10-10T18:36:50.349Z,4.10
2022-10-10T18:41:55.873Z,3.93
2022-10-10T18:47:01.395Z,4.17
2022-10-10T18:52:08.846Z,4.07
2022-10-10T18:57:14.588Z,3.50
2022-10-10T19:02:20.213Z,4.03
2022-10-10T19:07:25.665Z,3.80
2022-10-10T19:12:31.207Z,4.03
2022-10-10T19:17:36.655Z,4.37
2022-10-10T19:22:42.247Z,3.70
2022-10-10T19:27:47.773Z,3.97
2022-10-10T19:32:53.211Z,4.50
2022-10-10T19:37:58.599Z,3.50
2022-10-10T19:43:04.108Z,3.73
2022-10-10T19:48:11.149Z,3.70
2022-10-10T19:53:19.644Z,4.03
2022-10-10T19:58:25.572Z,3.87
2022-10-10T20:03:30.957Z,3.80
2022-10-10T20:08:36.744Z,4.37
2022-10-10T20:13:42.389Z,4.10
2022-10-10T20:18:48.032Z,4.20
2022-10-10T20:23:54.557Z,4.60
2022-10-10T20:29:01.128Z,4.53
2022-10-10T20:34:07.525Z,4.20
2022-10-10T20:39:14.657Z,4.53
2022-10-10T20:44:20.247Z,4.37
2022-10-10T20:49:27.344Z,4.80
2022-10-10T20:54:32.797Z,4.97
2022-10-10T20:59:38.319Z,4.67
2022-10-10T21:04:43.804Z,4.10
2022-10-10T21:09:49.404Z,4.80
2022-10-10T21:14:56.619Z,4.07
2022-10-10T21:20:02.089Z,4.20
2022-10-10T21:25:08.395Z,3.90
2022-10-10T21:30:14.000Z,3.93
2022-10-10T21:35:19.464Z,4.30
2022-10-10T21:40:24.865Z,4.00
2022-10-10T21:45:30.590Z,3.80
2022-10-10T21:50:37.316Z,4.50
2022-10-10T21:55:42.696Z,4.20
2022-10-10T22:00:48.390Z,4.20
2022-10-10T22:05:53.892Z,3.87
2022-10-10T22:11:03.780Z,3.80
2022-10-10T22:16:10.110Z,3.83
2022-10-10T22:21:18.324Z,4.17
2022-10-10T22:26:23.796Z,3.87
2022-10-10T22:31:29.518Z,3.57
2022-10-10T22:36:36.746Z,3.90
2022-10-10T22:41:42.539Z,3.97
2022-10-10T22:46:48.706Z,3.60
2022-10-10T22:51:54.247Z,3.90
2022-10-10T22:56:59.782Z,3.57
2022-10-10T23:02:05.247Z,3.77
2022-10-10T23:07:10.754Z,3.60
2022-10-10T23:12:16.677Z,4.27
2022-10-10T23:17:22.484Z,3.50
2022-10-10T23:22:27.986Z,3.93
2022-10-10T23:27:33.448Z,4.10
2022-10-10T23:32:38.983Z,3.40
2022-10-10T23:37:44.375Z,3.77
2022-10-10T23:42:49.888Z,3.03
2022-10-10T23:47:55.338Z,2.50
2022-10-10T23:53:01.046Z,2.37
2022-10-10T23:58:06.959Z,1.90
